sensor_id;sensor_type;location;lat;lon;timestamp;P1;durP1;ratioP1;P2;durP2;ratioP2
9771;SDS011;4925;52.588;13.370;2023-11-19T00:01:35;6.40;;;4.97;;
9771;SDS011;4925;52.588;13.370;2023-11-19T00:04:03;5.10;;;4.60;;
9771;SDS011;4925;52.588;13.370;2023-11-19T00:06:29;5.77;;;5.17;;
9771;SDS011;4925;52.588;13.370;2023-11-19T00:08:55;6.13;;;4.93;;
9771;SDS011;4925;52.588;13.370;2023-11-19T00:11:22;8.33;;;6.77;;
9771;SDS011;4925;52.588;13.370;2023-11-19T00:13:48;10.80;;;8.30;;
9771;SDS011;4925;52.588;13.370;2023-11-19T00:16:15;5.67;;;5.13;;
9771;SDS011;4925;52.588;13.370;2023-11-19T00:18:41;7.17;;;4.80;;
9771;SDS011;4925;52.588;13.370;2023-11-19T00:21:07;5.13;;;4.57;;
9771;SDS011;4925;52.588;13.370;2023-11-19T00:23:37;9.97;;;5.73;;
9771;SDS011;4925;52.588;13.370;2023-11-19T00:26:03;5.87;;;4.67;;
9771;SDS011;4925;52.588;13.370;2023-11-19T00:28:31;6.13;;;4.43;;
9771;SDS011;4925;52.588;13.370;2023-11-19T00:31:05;8.60;;;5.63;;
9771;SDS011;4925;52.588;13.370;2023-11-19T00:33:30;7.27;;;5.03;;
9771;SDS011;4925;52.588;13.370;2023-11-19T00:35:56;5.70;;;4.80;;
9771;SDS011;4925;52.588;13.370;2023-11-19T00:38:22;5.20;;;4.60;;
9771;SDS011;4925;52.588;13.370;2023-11-19T00:40:47;5.47;;;4.53;;
9771;SDS011;4925;52.588;13.370;2023-11-19T00:43:13;5.50;;;4.57;;
9771;SDS011;4925;52.588;13.370;2023-11-19T00:45:40;5.27;;;4.33;;
9771;SDS011;4925;52.588;13.370;2023-11-19T00:48:08;5.47;;;4.30;;
9771;SDS011;4925;52.588;13.370;2023-11-19T00:50:33;6.13;;;4.53;;
9771;SDS011;4925;52.588;13.370;2023-11-19T00:53:00;5.87;;;4.37;;
9771;SDS011;4925;52.588;13.370;2023-11-19T00:55:29;5.90;;;5.10;;
9771;SDS011;4925;52.588;13.370;2023-11-19T00:57:54;5.43;;;4.87;;
9771;SDS011;4925;52.588;13.370;2023-11-19T01:00:21;6.57;;;4.73;;
9771;SDS011;4925;52.588;13.370;2023-11-19T01:02:49;7.00;;;5.13;;
9771;SDS011;4925;52.588;13.370;2023-11-19T01:05:15;5.70;;;4.57;;
9771;SDS011;4925;52.588;13.370;2023-11-19T01:07:40;6.13;;;4.60;;
9771;SDS011;4925;52.588;13.370;2023-11-19T01:10:06;5.63;;;4.60;;
9771;SDS011;4925;52.588;13.370;2023-11-19T01:12:35;8.13;;;3.97;;
9771;SDS011;4925;52.588;13.370;2023-11-19T01:15:06;5.77;;;4.37;;
9771;SDS011;4925;52.588;13.370;2023-11-19T01:17:32;18.80;;;4.60;;
9771;SDS011;4925;52.588;13.370;2023-11-19T01:20:01;4.57;;;4.03;;
9771;SDS011;4925;52.588;13.370;2023-11-19T01:22:27;6.20;;;4.57;;
9771;SDS011;4925;52.588;13.370;2023-11-19T01:24:56;5.40;;;4.40;;
9771;SDS011;4925;52.588;13.370;2023-11-19T01:27:23;4.50;;;4.10;;
9771;SDS011;4925;52.588;13.370;2023-11-19T01:29:49;6.03;;;3.80;;
9771;SDS011;4925;52.588;13.370;2023-11-19T01:32:15;6.10;;;4.43;;
9771;SDS011;4925;52.588;13.370;2023-11-19T01:34:41;4.47;;;3.80;;
9771;SDS011;4925;52.588;13.370;2023-11-19T01:37:07;5.33;;;4.13;;
9771;SDS011;4925;52.588;13.370;2023-11-19T01:39:36;4.77;;;3.80;;
9771;SDS011;4925;52.588;13.370;2023-11-19T01:42:01;5.03;;;4.03;;
9771;SDS011;4925;52.588;13.370;2023-11-19T01:44:29;3.93;;;3.53;;
9771;SDS011;4925;52.588;13.370;2023-11-19T01:46:57;4.80;;;3.87;;
9771;SDS011;4925;52.588;13.370;2023-11-19T01:49:22;5.03;;;3.77;;
9771;SDS011;4925;52.588;13.370;2023-11-19T01:51:48;7.67;;;4.67;;
9771;SDS011;4925;52.588;13.370;2023-11-19T01:54:15;4.07;;;3.67;;
9771;SDS011;4925;52.588;13.370;2023-11-19T01:56:42;7.17;;;3.80;;
9771;SDS011;4925;52.588;13.370;2023-11-19T01:59:08;5.77;;;4.30;;
9771;SDS011;4925;52.588;13.370;2023-11-19T02:01:36;4.50;;;4.00;;
9771;SDS011;4925;52.588;13.370;2023-11-19T02:04:06;5.03;;;3.60;;
9771;SDS011;4925;52.588;13.370;2023-11-19T02:06:33;5.87;;;4.00;;
9771;SDS011;4925;52.588;13.370;2023-11-19T02:09:00;7.17;;;4.63;;
9771;SDS011;4925;52.588;13.370;2023-11-19T02:11:26;5.87;;;3.80;;
9771;SDS011;4925;52.588;13.370;2023-11-19T02:13:55;4.60;;;3.90;;
9771;SDS011;4925;52.588;13.370;2023-11-19T02:16:22;4.33;;;3.93;;
9771;SDS011;4925;52.588;13.370;2023-11-19T02:18:47;5.87;;;3.80;;
9771;SDS011;4925;52.588;13.370;2023-11-19T02:21:14;4.13;;;3.73;;
9771;SDS011;4925;52.588;13.370;2023-11-19T02:23:40;4.10;;;3.67;;
9771;SDS011;4925;52.588;13.370;2023-11-19T02:28:55;6.13;;;4.67;;
9771;SDS011;4925;52.588;13.370;2023-11-19T02:31:22;7.07;;;3.93;;
9771;SDS011;4925;52.588;13.370;2023-11-19T02:33:48;4.70;;;3.67;;
9771;SDS011;4925;52.588;13.370;2023-11-19T02:36:15;5.80;;;3.63;;
9771;SDS011;4925;52.588;13.370;2023-11-19T02:38:41;4.17;;;3.77;;
9771;SDS011;4925;52.588;13.370;2023-11-19T02:41:10;3.63;;;3.33;;
9771;SDS011;4925;52.588;13.370;2023-11-19T02:43:36;4.70;;;3.47;;
9771;SDS011;4925;52.588;13.370;2023-11-19T02:46:04;4.83;;;3.60;;
9771;SDS011;4925;52.588;13.370;2023-11-19T02:48:34;4.60;;;3.40;;
9771;SDS011;4925;52.588;13.370;2023-11-19T02:51:00;4.90;;;4.10;;
9771;SDS011;4925;52.588;13.370;2023-11-19T02:53:28;4.83;;;3.40;;
9771;SDS011;4925;52.588;13.370;2023-11-19T02:55:57;3.57;;;3.10;;
9771;SDS011;4925;52.588;13.370;2023-11-19T02:58:31;4.00;;;3.70;;
9771;SDS011;4925;52.588;13.370;2023-11-19T03:00:57;6.53;;;3.60;;
9771;SDS011;4925;52.588;13.370;2023-11-19T03:03:24;3.67;;;3.30;;
9771;SDS011;4925;52.588;13.370;2023-11-19T03:05:56;5.17;;;3.33;;
9771;SDS011;4925;52.588;13.370;2023-11-19T03:08:22;3.63;;;3.10;;
9771;SDS011;4925;52.588;13.370;2023-11-19T03:10:49;3.20;;;2.90;;
9771;SDS011;4925;52.588;13.370;2023-11-19T03:13:15;3.57;;;3.07;;
9771;SDS011;4925;52.588;13.370;2023-11-19T03:15:43;7.23;;;3.00;;
9771;SDS011;4925;52.588;13.370;2023-11-19T03:18:08;2.87;;;2.57;;
9771;SDS011;4925;52.588;13.370;2023-11-19T03:20:36;5.03;;;3.07;;
9771;SDS011;4925;52.588;13.370;2023-11-19T03:23:03;2.77;;;2.57;;
9771;SDS011;4925;52.588;13.370;2023-11-19T03:25:28;3.37;;;3.07;;
9771;SDS011;4925;52.588;13.370;2023-11-19T03:28:01;2.90;;;2.57;;
9771;SDS011;4925;52.588;13.370;2023-11-19T03:30:28;3.50;;;2.80;;
9771;SDS011;4925;52.588;13.370;2023-11-19T03:32:55;4.53;;;3.37;;
9771;SDS011;4925;52.588;13.370;2023-11-19T03:35:21;3.30;;;3.00;;
9771;SDS011;4925;52.588;13.370;2023-11-19T03:37:50;4.27;;;3.07;;
9771;SDS011;4925;52.588;13.370;2023-11-19T03:40:16;4.03;;;3.53;;
9771;SDS011;4925;52.588;13.370;2023-11-19T03:42:45;8.10;;;4.13;;
9771;SDS011;4925;52.588;13.370;2023-11-19T03:45:11;4.33;;;3.17;;
9771;SDS011;4925;52.588;13.370;2023-11-19T03:47:39;4.77;;;3.27;;
9771;SDS011;4925;52.588;13.370;2023-11-19T03:50:06;6.67;;;3.77;;
9771;SDS011;4925;52.588;13.370;2023-11-19T03:52:35;5.67;;;3.27;;
9771;SDS011;4925;52.588;13.370;2023-11-19T03:55:01;4.03;;;3.60;;
9771;SDS011;4925;52.588;13.370;2023-11-19T03:57:30;5.43;;;3.53;;
9771;SDS011;4925;52.588;13.370;2023-11-19T03:59:56;5.40;;;3.57;;
9771;SDS011;4925;52.588;13.370;2023-11-19T04:02:23;7.20;;;4.10;;
9771;SDS011;4925;52.588;13.370;2023-11-19T04:04:54;4.10;;;3.70;;
9771;SDS011;4925;52.588;13.370;2023-11-19T04:07:20;6.43;;;3.60;;
9771;SDS011;4925;52.588;13.370;2023-11-19T04:09:48;4.83;;;3.73;;
9771;SDS011;4925;52.588;13.370;2023-11-19T04:12:14;7.50;;;4.10;;
9771;SDS011;4925;52.588;13.370;2023-11-19T04:14:40;5.07;;;4.00;;
9771;SDS011;4925;52.588;13.370;2023-11-19T04:17:05;5.57;;;4.07;;
9771;SDS011;4925;52.588;13.370;2023-11-19T04:19:31;4.70;;;3.80;;
9771;SDS011;4925;52.588;13.370;2023-11-19T04:21:58;4.53;;;4.13;;
9771;SDS011;4925;52.588;13.370;2023-11-19T04:24:24;5.90;;;4.10;;
9771;SDS011;4925;52.588;13.370;2023-11-19T04:26:49;5.27;;;4.63;;
9771;SDS011;4925;52.588;13.370;2023-11-19T04:29:15;7.00;;;4.43;;
9771;SDS011;4925;52.588;13.370;2023-11-19T04:31:43;6.57;;;3.83;;
9771;SDS011;4925;52.588;13.370;2023-11-19T04:34:10;6.33;;;4.37;;
9771;SDS011;4925;52.588;13.370;2023-11-19T04:36:39;6.17;;;4.70;;
9771;SDS011;4925;52.588;13.370;2023-11-19T04:39:06;4.97;;;4.43;;
9771;SDS011;4925;52.588;13.370;2023-11-19T04:41:51;4.87;;;4.30;;
9771;SDS011;4925;52.588;13.370;2023-11-19T04:44:18;4.77;;;3.73;;
9771;SDS011;4925;52.588;13.370;2023-11-19T04:46:44;5.00;;;4.30;;
9771;SDS011;4925;52.588;13.370;2023-11-19T04:49:14;5.70;;;4.43;;
9771;SDS011;4925;52.588;13.370;2023-11-19T04:51:44;6.07;;;4.40;;
9771;SDS011;4925;52.588;13.370;2023-11-19T04:54:16;4.53;;;4.00;;
9771;SDS011;4925;52.588;13.370;2023-11-19T04:56:44;9.23;;;4.37;;
9771;SDS011;4925;52.588;13.370;2023-11-19T04:59:11;6.33;;;4.90;;
9771;SDS011;4925;52.588;13.370;2023-11-19T05:01:38;5.93;;;4.57;;
9771;SDS011;4925;52.588;13.370;2023-11-19T05:04:03;4.93;;;4.37;;
9771;SDS011;4925;52.588;13.370;2023-11-19T05:06:29;5.13;;;4.23;;
9771;SDS011;4925;52.588;13.370;2023-11-19T05:08:59;6.73;;;4.73;;
9771;SDS011;4925;52.588;13.370;2023-11-19T05:11:31;6.30;;;4.87;;
9771;SDS011;4925;52.588;13.370;2023-11-19T05:13:57;7.43;;;4.87;;
9771;SDS011;4925;52.588;13.370;2023-11-19T05:16:23;5.40;;;4.00;;
9771;SDS011;4925;52.588;13.370;2023-11-19T05:18:48;5.17;;;4.43;;
9771;SDS011;4925;52.588;13.370;2023-11-19T05:21:14;6.20;;;4.53;;
9771;SDS011;4925;52.588;13.370;2023-11-19T05:23:40;4.80;;;4.10;;
9771;SDS011;4925;52.588;13.370;2023-11-19T05:26:07;5.17;;;4.67;;
9771;SDS011;4925;52.588;13.370;2023-11-19T05:28:32;5.90;;;4.60;;
9771;SDS011;4925;52.588;13.370;2023-11-19T05:30:58;5.07;;;4.07;;
9771;SDS011;4925;52.588;13.370;2023-11-19T05:33:24;4.60;;;3.77;;
9771;SDS011;4925;52.588;13.370;2023-11-19T05:35:49;5.00;;;4.00;;
9771;SDS011;4925;52.588;13.370;2023-11-19T05:38:15;6.13;;;4.30;;
9771;SDS011;4925;52.588;13.370;2023-11-19T05:40:41;5.67;;;4.30;;
9771;SDS011;4925;52.588;13.370;2023-11-19T05:43:08;5.37;;;4.43;;
9771;SDS011;4925;52.588;13.370;2023-11-19T05:45:34;4.17;;;3.77;;
9771;SDS011;4925;52.588;13.370;2023-11-19T05:48:00;4.63;;;4.20;;
9771;SDS011;4925;52.588;13.370;2023-11-19T05:50:26;5.10;;;4.30;;
9771;SDS011;4925;52.588;13.370;2023-11-19T05:52:51;5.13;;;3.70;;
9771;SDS011;4925;52.588;13.370;2023-11-19T05:55:18;3.73;;;3.43;;
9771;SDS011;4925;52.588;13.370;2023-11-19T05:57:44;4.10;;;3.60;;
9771;SDS011;4925;52.588;13.370;2023-11-19T06:00:10;4.30;;;3.80;;
9771;SDS011;4925;52.588;13.370;2023-11-19T06:02:39;5.10;;;3.90;;
9771;SDS011;4925;52.588;13.370;2023-11-19T06:05:05;4.70;;;3.20;;
9771;SDS011;4925;52.588;13.370;2023-11-19T06:07:32;4.20;;;3.80;;
9771;SDS011;4925;52.588;13.370;2023-11-19T06:10:02;4.07;;;3.70;;
9771;SDS011;4925;52.588;13.370;2023-11-19T06:12:30;4.43;;;3.60;;
9771;SDS011;4925;52.588;13.370;2023-11-19T06:14:57;4.00;;;3.60;;
9771;SDS011;4925;52.588;13.370;2023-11-19T06:17:23;4.23;;;3.57;;
9771;SDS011;4925;52.588;13.370;2023-11-19T06:19:48;4.30;;;3.90;;
9771;SDS011;4925;52.588;13.370;2023-11-19T06:22:14;3.60;;;3.30;;
9771;SDS011;4925;52.588;13.370;2023-11-19T06:24:40;4.03;;;3.63;;
9771;SDS011;4925;52.588;13.370;2023-11-19T06:27:06;3.43;;;3.13;;
9771;SDS011;4925;52.588;13.370;2023-11-19T06:29:31;4.63;;;3.93;;
9771;SDS011;4925;52.588;13.370;2023-11-19T06:31:57;3.77;;;3.47;;
9771;SDS011;4925;52.588;13.370;2023-11-19T06:34:23;4.47;;;3.80;;
9771;SDS011;4925;52.588;13.370;2023-11-19T06:36:49;3.87;;;3.57;;
9771;SDS011;4925;52.588;13.370;2023-11-19T06:39:14;5.97;;;3.63;;
9771;SDS011;4925;52.588;13.370;2023-11-19T06:41:45;6.23;;;3.50;;
9771;SDS011;4925;52.588;13.370;2023-11-19T06:44:13;4.53;;;3.83;;
9771;SDS011;4925;52.588;13.370;2023-11-19T06:46:39;3.83;;;3.43;;
9771;SDS011;4925;52.588;13.370;2023-11-19T06:49:05;3.93;;;3.63;;
9771;SDS011;4925;52.588;13.370;2023-11-19T06:51:32;3.37;;;3.07;;
9771;SDS011;4925;52.588;13.370;2023-11-19T06:53:58;4.80;;;3.33;;
9771;SDS011;4925;52.588;13.370;2023-11-19T06:56:24;3.70;;;3.40;;
9771;SDS011;4925;52.588;13.370;2023-11-19T06:58:50;4.07;;;3.30;;
9771;SDS011;4925;52.588;13.370;2023-11-19T07:01:17;5.40;;;3.30;;
9771;SDS011;4925;52.588;13.370;2023-11-19T07:03:44;5.37;;;3.30;;
9771;SDS011;4925;52.588;13.370;2023-11-19T07:06:12;3.90;;;3.17;;
9771;SDS011;4925;52.588;13.370;2023-11-19T07:08:41;3.70;;;2.93;;
9771;SDS011;4925;52.588;13.370;2023-11-19T07:11:10;3.57;;;3.27;;
9771;SDS011;4925;52.588;13.370;2023-11-19T07:13:36;4.33;;;3.23;;
9771;SDS011;4925;52.588;13.370;2023-11-19T07:16:02;3.47;;;2.87;;
9771;SDS011;4925;52.588;13.370;2023-11-19T07:18:29;4.57;;;3.20;;
9771;SDS011;4925;52.588;13.370;2023-11-19T07:20:56;3.97;;;3.30;;
9771;SDS011;4925;52.588;13.370;2023-11-19T07:23:22;3.30;;;2.97;;
9771;SDS011;4925;52.588;13.370;2023-11-19T07:25:48;2.73;;;2.53;;
9771;SDS011;4925;52.588;13.370;2023-11-19T07:28:15;3.47;;;3.17;;
9771;SDS011;4925;52.588;13.370;2023-11-19T07:30:42;3.80;;;3.50;;
9771;SDS011;4925;52.588;13.370;2023-11-19T07:33:10;6.90;;;4.60;;
9771;SDS011;4925;52.588;13.370;2023-11-19T07:35:46;3.67;;;3.37;;
9771;SDS011;4925;52.588;13.370;2023-11-19T07:38:14;3.13;;;2.83;;
9771;SDS011;4925;52.588;13.370;2023-11-19T07:40:40;3.20;;;2.90;;
9771;SDS011;4925;52.588;13.370;2023-11-19T07:43:06;3.57;;;2.60;;
9771;SDS011;4925;52.588;13.370;2023-11-19T07:45:32;2.73;;;2.43;;
9771;SDS011;4925;52.588;13.370;2023-11-19T07:47:58;2.70;;;2.50;;
9771;SDS011;4925;52.588;13.370;2023-11-19T07:50:26;2.80;;;2.60;;
9771;SDS011;4925;52.588;13.370;2023-11-19T07:52:52;2.33;;;2.13;;
9771;SDS011;4925;52.588;13.370;2023-11-19T07:55:18;2.77;;;2.57;;
9771;SDS011;4925;52.588;13.370;2023-11-19T07:57:47;2.47;;;2.27;;
9771;SDS011;4925;52.588;13.370;2023-11-19T08:00:14;2.60;;;2.40;;
9771;SDS011;4925;52.588;13.370;2023-11-19T08:02:41;3.13;;;2.90;;
9771;SDS011;4925;52.588;13.370;2023-11-19T08:05:07;3.70;;;2.93;;
9771;SDS011;4925;52.588;13.370;2023-11-19T08:07:34;2.73;;;2.53;;
9771;SDS011;4925;52.588;13.370;2023-11-19T08:09:59;3.10;;;2.90;;
9771;SDS011;4925;52.588;13.370;2023-11-19T08:12:25;3.30;;;3.00;;
9771;SDS011;4925;52.588;13.370;2023-11-19T08:14:51;3.37;;;3.10;;
9771;SDS011;4925;52.588;13.370;2023-11-19T08:17:18;3.00;;;2.80;;
9771;SDS011;4925;52.588;13.370;2023-11-19T08:19:44;3.03;;;2.83;;
9771;SDS011;4925;52.588;13.370;2023-11-19T08:22:10;3.07;;;2.87;;
9771;SDS011;4925;52.588;13.370;2023-11-19T08:24:36;3.33;;;3.03;;
9771;SDS011;4925;52.588;13.370;2023-11-19T08:27:02;3.10;;;2.90;;
9771;SDS011;4925;52.588;13.370;2023-11-19T08:29:27;3.37;;;3.00;;
9771;SDS011;4925;52.588;13.370;2023-11-19T08:31:53;3.47;;;3.17;;
9771;SDS011;4925;52.588;13.370;2023-11-19T08:34:20;3.20;;;2.90;;
9771;SDS011;4925;52.588;13.370;2023-11-19T08:36:51;3.70;;;3.40;;
9771;SDS011;4925;52.588;13.370;2023-11-19T08:39:19;3.50;;;3.20;;
9771;SDS011;4925;52.588;13.370;2023-11-19T08:41:48;3.47;;;3.17;;
9771;SDS011;4925;52.588;13.370;2023-11-19T08:44:13;3.57;;;3.27;;
9771;SDS011;4925;52.588;13.370;2023-11-19T08:46:45;3.57;;;3.27;;
9771;SDS011;4925;52.588;13.370;2023-11-19T08:49:14;6.10;;;5.53;;
9771;SDS011;4925;52.588;13.370;2023-11-19T08:51:40;8.60;;;6.87;;
9771;SDS011;4925;52.588;13.370;2023-11-19T08:54:07;7.03;;;6.33;;
9771;SDS011;4925;52.588;13.370;2023-11-19T08:56:34;5.67;;;5.10;;
9771;SDS011;4925;52.588;13.370;2023-11-19T08:59:00;3.83;;;3.53;;
9771;SDS011;4925;52.588;13.370;2023-11-19T09:01:27;3.63;;;3.30;;
9771;SDS011;4925;52.588;13.370;2023-11-19T09:03:55;4.77;;;4.10;;
9771;SDS011;4925;52.588;13.370;2023-11-19T09:06:23;3.60;;;3.30;;
9771;SDS011;4925;52.588;13.370;2023-11-19T09:08:49;3.83;;;3.30;;
9771;SDS011;4925;52.588;13.370;2023-11-19T09:11:14;4.50;;;3.57;;
9771;SDS011;4925;52.588;13.370;2023-11-19T09:13:41;5.53;;;5.03;;
9771;SDS011;4925;52.588;13.370;2023-11-19T09:16:08;5.57;;;4.87;;
9771;SDS011;4925;52.588;13.370;2023-11-19T09:18:34;4.40;;;4.00;;
9771;SDS011;4925;52.588;13.370;2023-11-19T09:21:00;4.70;;;4.30;;
9771;SDS011;4925;52.588;13.370;2023-11-19T09:23:25;4.33;;;3.93;;
9771;SDS011;4925;52.588;13.370;2023-11-19T09:25:53;3.60;;;3.30;;
9771;SDS011;4925;52.588;13.370;2023-11-19T09:28:20;4.00;;;3.70;;
9771;SDS011;4925;52.588;13.370;2023-11-19T09:30:45;3.63;;;3.33;;
9771;SDS011;4925;52.588;13.370;2023-11-19T09:33:11;3.13;;;2.90;;
9771;SDS011;4925;52.588;13.370;2023-11-19T09:35:37;3.93;;;3.63;;
9771;SDS011;4925;52.588;13.370;2023-11-19T09:38:04;8.43;;;6.47;;
9771;SDS011;4925;52.588;13.370;2023-11-19T09:40:31;5.00;;;4.50;;
9771;SDS011;4925;52.588;13.370;2023-11-19T09:43:03;5.23;;;4.80;;
9771;SDS011;4925;52.588;13.370;2023-11-19T09:45:29;6.50;;;5.90;;
9771;SDS011;4925;52.588;13.370;2023-11-19T09:48:08;6.73;;;6.13;;
9771;SDS011;4925;52.588;13.370;2023-11-19T09:50:34;6.37;;;5.80;;
9771;SDS011;4925;52.588;13.370;2023-11-19T09:52:59;18.93;;;13.93;;
9771;SDS011;4925;52.588;13.370;2023-11-19T09:55:25;4.77;;;3.80;;
9771;SDS011;4925;52.588;13.370;2023-11-19T09:57:52;4.37;;;3.97;;
9771;SDS011;4925;52.588;13.370;2023-11-19T10:00:19;5.33;;;4.67;;
9771;SDS011;4925;52.588;13.370;2023-11-19T10:02:46;4.73;;;3.90;;
9771;SDS011;4925;52.588;13.370;2023-11-19T10:05:13;5.23;;;4.83;;
9771;SDS011;4925;52.588;13.370;2023-11-19T10:07:40;5.30;;;4.90;;
9771;SDS011;4925;52.588;13.370;2023-11-19T10:10:05;5.87;;;5.27;;
9771;SDS011;4925;52.588;13.370;2023-11-19T10:12:32;5.03;;;4.50;;
9771;SDS011;4925;52.588;13.370;2023-11-19T10:14:58;3.27;;;2.97;;
9771;SDS011;4925;52.588;13.370;2023-11-19T10:17:34;3.80;;;3.00;;
9771;SDS011;4925;52.588;13.370;2023-11-19T10:20:00;4.10;;;3.10;;
9771;SDS011;4925;52.588;13.370;2023-11-19T10:22:29;2.37;;;2.20;;
9771;SDS011;4925;52.588;13.370;2023-11-19T10:24:58;2.60;;;2.40;;
9771;SDS011;4925;52.588;13.370;2023-11-19T10:27:26;3.40;;;2.60;;
9771;SDS011;4925;52.588;13.370;2023-11-19T10:29:53;4.63;;;3.37;;
9771;SDS011;4925;52.588;13.370;2023-11-19T10:32:19;6.40;;;3.33;;
9771;SDS011;4925;52.588;13.370;2023-11-19T10:34:44;3.77;;;2.73;;
9771;SDS011;4925;52.588;13.370;2023-11-19T10:37:27;6.37;;;3.63;;
9771;SDS011;4925;52.588;13.370;2023-11-19T10:39:59;3.63;;;2.63;;
9771;SDS011;4925;52.588;13.370;2023-11-19T10:42:35;3.03;;;2.70;;
9771;SDS011;4925;52.588;13.370;2023-11-19T10:45:03;5.83;;;2.47;;
9771;SDS011;4925;52.588;13.370;2023-11-19T10:47:30;5.20;;;2.20;;
9771;SDS011;4925;52.588;13.370;2023-11-19T10:49:58;5.67;;;2.10;;
9771;SDS011;4925;52.588;13.370;2023-11-19T10:52:25;2.93;;;1.63;;
9771;SDS011;4925;52.588;13.370;2023-11-19T10:54:53;3.23;;;1.77;;
9771;SDS011;4925;52.588;13.370;2023-11-19T10:57:22;4.77;;;2.07;;
9771;SDS011;4925;52.588;13.370;2023-11-19T10:59:52;4.60;;;1.90;;
9771;SDS011;4925;52.588;13.370;2023-11-19T11:02:27;5.23;;;1.70;;
9771;SDS011;4925;52.588;13.370;2023-11-19T11:04:56;2.93;;;1.70;;
9771;SDS011;4925;52.588;13.370;2023-11-19T11:07:23;2.57;;;1.47;;
9771;SDS011;4925;52.588;13.370;2023-11-19T11:09:51;5.20;;;3.03;;
9771;SDS011;4925;52.588;13.370;2023-11-19T11:12:21;5.90;;;2.23;;
9771;SDS011;4925;52.588;13.370;2023-11-19T11:14:50;5.77;;;2.20;;
9771;SDS011;4925;52.588;13.370;2023-11-19T11:17:24;8.40;;;2.13;;
9771;SDS011;4925;52.588;13.370;2023-11-19T11:19:57;11.63;;;1.87;;
9771;SDS011;4925;52.588;13.370;2023-11-19T11:22:34;7.73;;;2.07;;
9771;SDS011;4925;52.588;13.370;2023-11-19T11:31:26;12.20;;;2.60;;
9771;SDS011;4925;52.588;13.370;2023-11-19T11:37:49;8.73;;;2.10;;
9771;SDS011;4925;52.588;13.370;2023-11-19T11:40:26;6.87;;;2.23;;
9771;SDS011;4925;52.588;13.370;2023-11-19T11:42:52;8.20;;;2.47;;
9771;SDS011;4925;52.588;13.370;2023-11-19T11:45:19;9.53;;;2.07;;
9771;SDS011;4925;52.588;13.370;2023-11-19T11:48:04;9.37;;;2.43;;
9771;SDS011;4925;52.588;13.370;2023-11-19T11:50:47;8.37;;;2.60;;
9771;SDS011;4925;52.588;13.370;2023-11-19T11:53:22;15.83;;;3.10;;
9771;SDS011;4925;52.588;13.370;2023-11-19T11:55:53;9.50;;;2.70;;
9771;SDS011;4925;52.588;13.370;2023-11-19T11:58:31;13.43;;;2.73;;
9771;SDS011;4925;52.588;13.370;2023-11-19T12:01:00;7.90;;;3.00;;
9771;SDS011;4925;52.588;13.370;2023-11-19T12:03:28;16.97;;;3.53;;
9771;SDS011;4925;52.588;13.370;2023-11-19T12:05:58;9.90;;;3.17;;
9771;SDS011;4925;52.588;13.370;2023-11-19T12:08:29;11.43;;;3.10;;
9771;SDS011;4925;52.588;13.370;2023-11-19T12:10:56;12.87;;;3.10;;
9771;SDS011;4925;52.588;13.370;2023-11-19T12:13:29;16.77;;;3.70;;
9771;SDS011;4925;52.588;13.370;2023-11-19T12:16:15;15.03;;;3.13;;
9771;SDS011;4925;52.588;13.370;2023-11-19T12:18:41;12.30;;;3.87;;
9771;SDS011;4925;52.588;13.370;2023-11-19T12:21:07;11.03;;;3.60;;
9771;SDS011;4925;52.588;13.370;2023-11-19T12:23:35;12.67;;;3.43;;
9771;SDS011;4925;52.588;13.370;2023-11-19T12:28:59;16.83;;;3.63;;
9771;SDS011;4925;52.588;13.370;2023-11-19T12:31:29;9.90;;;2.63;;
9771;SDS011;4925;52.588;13.370;2023-11-19T12:33:55;11.60;;;3.50;;
9771;SDS011;4925;52.588;13.370;2023-11-19T12:36:22;11.30;;;3.10;;
9771;SDS011;4925;52.588;13.370;2023-11-19T12:38:50;14.30;;;3.47;;
9771;SDS011;4925;52.588;13.370;2023-11-19T12:41:16;11.57;;;3.93;;
9771;SDS011;4925;52.588;13.370;2023-11-19T12:43:45;15.40;;;3.50;;
9771;SDS011;4925;52.588;13.370;2023-11-19T12:46:21;17.00;;;3.50;;
9771;SDS011;4925;52.588;13.370;2023-11-19T12:48:49;9.80;;;3.63;;
9771;SDS011;4925;52.588;13.370;2023-11-19T12:51:15;22.63;;;4.47;;
9771;SDS011;4925;52.588;13.370;2023-11-19T12:53:51;15.40;;;3.33;;
9771;SDS011;4925;52.588;13.370;2023-11-19T12:56:22;10.43;;;3.63;;
9771;SDS011;4925;52.588;13.370;2023-11-19T12:58:48;15.37;;;4.77;;
9771;SDS011;4925;52.588;13.370;2023-11-19T13:01:18;23.83;;;4.30;;
9771;SDS011;4925;52.588;13.370;2023-11-19T13:03:47;9.23;;;2.77;;
9771;SDS011;4925;52.588;13.370;2023-11-19T13:06:16;11.87;;;3.83;;
9771;SDS011;4925;52.588;13.370;2023-11-19T13:08:43;12.83;;;3.40;;
9771;SDS011;4925;52.588;13.370;2023-11-19T13:11:10;17.07;;;3.87;;
9771;SDS011;4925;52.588;13.370;2023-11-19T13:16:27;20.67;;;4.77;;
9771;SDS011;4925;52.588;13.370;2023-11-19T13:18:53;15.70;;;3.60;;
9771;SDS011;4925;52.588;13.370;2023-11-19T13:21:20;14.37;;;3.53;;
9771;SDS011;4925;52.588;13.370;2023-11-19T13:23:47;11.97;;;2.63;;
9771;SDS011;4925;52.588;13.370;2023-11-19T13:26:16;16.37;;;4.23;;
9771;SDS011;4925;52.588;13.370;2023-11-19T13:28:42;15.00;;;3.70;;
9771;SDS011;4925;52.588;13.370;2023-11-19T13:31:09;17.70;;;4.23;;
9771;SDS011;4925;52.588;13.370;2023-11-19T13:33:37;12.10;;;3.27;;
9771;SDS011;4925;52.588;13.370;2023-11-19T13:36:04;17.87;;;3.50;;
9771;SDS011;4925;52.588;13.370;2023-11-19T13:38:34;15.17;;;3.90;;
9771;SDS011;4925;52.588;13.370;2023-11-19T13:41:05;12.60;;;3.57;;
9771;SDS011;4925;52.588;13.370;2023-11-19T13:43:31;21.43;;;3.40;;
9771;SDS011;4925;52.588;13.370;2023-11-19T13:45:57;14.03;;;3.60;;
9771;SDS011;4925;52.588;13.370;2023-11-19T13:48:23;10.93;;;4.00;;
9771;SDS011;4925;52.588;13.370;2023-11-19T13:50:52;16.13;;;3.47;;
9771;SDS011;4925;52.588;13.370;2023-11-19T13:53:18;12.47;;;3.70;;
9771;SDS011;4925;52.588;13.370;2023-11-19T13:55:47;14.73;;;3.60;;
9771;SDS011;4925;52.588;13.370;2023-11-19T13:58:13;15.13;;;3.47;;
9771;SDS011;4925;52.588;13.370;2023-11-19T14:00:39;14.60;;;4.23;;
9771;SDS011;4925;52.588;13.370;2023-11-19T14:03:07;13.17;;;4.00;;
9771;SDS011;4925;52.588;13.370;2023-11-19T14:05:41;9.67;;;3.37;;
9771;SDS011;4925;52.588;13.370;2023-11-19T14:08:11;11.27;;;3.97;;
9771;SDS011;4925;52.588;13.370;2023-11-19T14:13:24;12.43;;;3.17;;
9771;SDS011;4925;52.588;13.370;2023-11-19T14:15:50;21.37;;;5.50;;
9771;SDS011;4925;52.588;13.370;2023-11-19T14:18:20;13.37;;;3.63;;
9771;SDS011;4925;52.588;13.370;2023-11-19T14:20:47;18.33;;;4.70;;
9771;SDS011;4925;52.588;13.370;2023-11-19T14:23:14;17.53;;;5.23;;
9771;SDS011;4925;52.588;13.370;2023-11-19T14:25:41;16.43;;;3.90;;
9771;SDS011;4925;52.588;13.370;2023-11-19T14:28:08;14.97;;;3.63;;
9771;SDS011;4925;52.588;13.370;2023-11-19T14:30:37;16.30;;;4.53;;
9771;SDS011;4925;52.588;13.370;2023-11-19T14:33:03;19.27;;;3.87;;
9771;SDS011;4925;52.588;13.370;2023-11-19T14:35:30;14.00;;;3.83;;
9771;SDS011;4925;52.588;13.370;2023-11-19T14:38:14;13.87;;;3.50;;
9771;SDS011;4925;52.588;13.370;2023-11-19T14:40:41;19.53;;;4.43;;
9771;SDS011;4925;52.588;13.370;2023-11-19T14:43:11;12.43;;;3.70;;
9771;SDS011;4925;52.588;13.370;2023-11-19T14:45:38;19.50;;;4.57;;
9771;SDS011;4925;52.588;13.370;2023-11-19T14:48:05;18.27;;;4.63;;
9771;SDS011;4925;52.588;13.370;2023-11-19T14:50:35;15.20;;;4.30;;
9771;SDS011;4925;52.588;13.370;2023-11-19T14:53:01;17.17;;;4.90;;
9771;SDS011;4925;52.588;13.370;2023-11-19T14:55:27;11.13;;;3.97;;
9771;SDS011;4925;52.588;13.370;2023-11-19T14:57:54;17.37;;;4.03;;
9771;SDS011;4925;52.588;13.370;2023-11-19T15:00:22;17.47;;;4.33;;
9771;SDS011;4925;52.588;13.370;2023-11-19T15:02:47;16.77;;;4.37;;
9771;SDS011;4925;52.588;13.370;2023-11-19T15:05:13;12.97;;;3.70;;
9771;SDS011;4925;52.588;13.370;2023-11-19T15:07:42;15.90;;;3.90;;
9771;SDS011;4925;52.588;13.370;2023-11-19T15:10:20;24.27;;;4.20;;
9771;SDS011;4925;52.588;13.370;2023-11-19T15:12:49;22.13;;;4.13;;
9771;SDS011;4925;52.588;13.370;2023-11-19T15:15:15;16.63;;;4.20;;
9771;SDS011;4925;52.588;13.370;2023-11-19T15:17:42;13.70;;;3.77;;
9771;SDS011;4925;52.588;13.370;2023-11-19T15:20:08;11.47;;;3.10;;
9771;SDS011;4925;52.588;13.370;2023-11-19T15:22:35;16.53;;;4.07;;